Time;durP1;ratioP1;P1;durP2;ratioP2;P2;SDS_P1;SDS_P2;PMS_P1;PMS_P2;Temp;Humidity;BMP_temperature;BMP_pressure;BME280_temperature;BME280_humidity;BME280_pressure;Samples;Min_cycle;Max_cycle;Signal;HPM_P1;HPM_P2
2021/11/05 00:01:57;;;;;;;17.17;12.70;;;;;;;6.68;nan;100383.25;5051250;28;20037;-77
2021/11/05 00:04:23;;;;;;;15.50;11.57;;;;;;;6.62;nan;100377.69;5048604;28;20064;-77
2021/11/05 00:06:48;;;;;;;15.70;11.30;;;;;;;6.61;nan;100383.91;5051189;28;20416;-77
2021/11/05 00:09:13;;;;;;;16.02;11.07;;;;;;;6.59;nan;100373.50;5050040;28;20535;-77
2021/11/05 00:11:39;;;;;;;15.18;10.90;;;;;;;6.58;nan;100382.38;5051667;28;20033;-77
2021/11/05 00:14:04;;;;;;;16.63;11.18;;;;;;;6.62;nan;100378.50;5049831;28;20033;-77
2021/11/05 00:16:29;;;;;;;18.30;11.57;;;;;;;6.57;nan;100381.50;5049409;28;20114;-77
2021/11/05 00:18:55;;;;;;;17.90;12.57;;;;;;;6.62;nan;100378.50;5051289;28;20444;-77
2021/11/05 00:21:20;;;;;;;15.25;11.02;;;;;;;6.56;nan;100389.53;5051639;28;20116;-77
2021/11/05 00:23:45;;;;;;;18.40;11.07;;;;;;;6.58;nan;100388.44;5049962;28;20115;-77
2021/11/05 00:26:10;;;;;;;17.77;11.68;;;;;;;6.59;nan;100384.03;5049949;28;20068;-77
2021/11/05 00:28:36;;;;;;;17.20;11.80;;;;;;;6.56;nan;100392.16;5051282;28;20123;-77
2021/11/05 00:31:01;;;;;;;16.23;11.40;;;;;;;6.55;nan;100383.47;5050410;28;20060;-77
2021/11/05 00:33:26;;;;;;;15.57;12.23;;;;;;;6.57;nan;100389.41;5050591;28;20037;-77
2021/11/05 00:35:52;;;;;;;14.60;10.93;;;;;;;6.50;nan;100385.63;5050247;28;20028;-76
2021/11/05 00:38:17;;;;;;;15.52;10.68;;;;;;;6.51;nan;100395.19;5042619;28;20115;-76
2021/11/05 00:40:43;;;;;;;17.15;11.95;;;;;;;6.55;nan;100407.09;5048990;28;20063;-76
2021/11/05 00:43:08;;;;;;;14.60;11.20;;;;;;;6.51;nan;100403.06;5048522;28;20070;-76
2021/11/05 00:45:33;;;;;;;14.63;10.23;;;;;;;6.48;nan;100408.56;5050304;28;20444;-76
2021/11/05 00:47:59;;;;;;;19.42;11.57;;;;;;;6.54;nan;100404.59;5051088;28;20388;-77
2021/11/05 00:50:25;;;;;;;14.95;11.02;;;;;;;6.50;nan;100401.38;5048272;28;20036;-77
2021/11/05 00:52:50;;;;;;;17.35;11.15;;;;;;;6.51;nan;100408.31;5050393;28;20052;-77
2021/11/05 00:55:16;;;;;;;15.73;11.38;;;;;;;6.52;nan;100414.41;5048715;28;20067;-77
2021/11/05 00:57:41;;;;;;;15.50;10.85;;;;;;;6.50;nan;100414.50;5048017;28;20107;-77
2021/11/05 01:00:11;;;;;;;16.83;12.48;;;;;;;6.52;nan;100415.22;5050055;28;20377;-77
2021/11/05 01:02:36;;;;;;;15.65;11.35;;;;;;;6.49;nan;100417.28;5050043;28;20036;-77
2021/11/05 01:05:03;;;;;;;16.95;11.30;;;;;;;6.49;nan;100420.75;5050186;28;20075;-77
2021/11/05 01:07:28;;;;;;;13.70;10.55;;;;;;;6.49;nan;100425.16;5047795;28;20041;-77
2021/11/05 01:09:53;;;;;;;13.93;10.63;;;;;;;6.50;nan;100426.81;5048882;28;20037;-77
2021/11/05 01:12:20;;;;;;;15.30;11.35;;;;;;;6.49;nan;100426.00;5046118;28;20029;-77
2021/11/05 01:14:46;;;;;;;15.43;11.23;;;;;;;6.50;nan;100426.81;5043816;28;20037;-77
2021/11/05 01:17:11;;;;;;;14.70;10.70;;;;;;;6.50;nan;100432.06;5050537;28;20424;-76
2021/11/05 01:19:37;;;;;;;16.42;11.00;;;;;;;6.49;nan;100426.00;5050117;28;20029;-76
2021/11/05 01:22:02;;;;;;;18.13;12.30;;;;;;;6.51;nan;100437.22;5049825;28;20614;-77
2021/11/05 01:24:28;;;;;;;13.93;10.35;;;;;;;6.50;nan;100437.31;5048613;28;20048;-77
2021/11/05 01:26:53;;;;;;;14.05;10.68;;;;;;;6.47;nan;100442.84;5045826;28;20048;-77
2021/11/05 01:29:18;;;;;;;16.63;12.27;;;;;;;6.54;nan;100447.47;5049528;28;20070;-77
2021/11/05 01:31:44;;;;;;;17.42;12.00;;;;;;;6.52;nan;100449.38;5047957;28;20045;-77
2021/11/05 01:34:09;;;;;;;15.13;11.15;;;;;;;6.51;nan;100450.34;5049169;28;20045;-76
2021/11/05 01:36:35;;;;;;;14.02;10.35;;;;;;;6.47;nan;100454.19;5049318;28;20033;-76
2021/11/05 01:39:00;;;;;;;15.13;10.93;;;;;;;6.53;nan;100452.81;5048696;28;20036;-77
2021/11/05 01:41:26;;;;;;;15.32;11.35;;;;;;;6.53;nan;100451.06;5049310;28;20040;-77
2021/11/05 01:43:52;;;;;;;18.15;12.13;;;;;;;6.56;nan;100456.03;5048832;28;20037;-77
2021/11/05 01:46:19;;;;;;;15.38;10.20;;;;;;;6.52;nan;100461.69;5048770;28;20033;-77
2021/11/05 01:48:44;;;;;;;14.98;11.18;;;;;;;6.48;nan;100458.47;5048669;28;20036;-77
2021/11/05 01:51:09;;;;;;;14.55;10.70;;;;;;;6.50;nan;100459.16;5048224;28;20032;-76
2021/11/05 01:53:35;;;;;;;15.65;11.82;;;;;;;6.58;nan;100462.00;5048579;28;20095;-77
2021/11/05 01:56:01;;;;;;;14.90;11.38;;;;;;;6.58;nan;100472.53;5048744;28;20515;-77
2021/11/05 01:58:26;;;;;;;15.38;11.18;;;;;;;6.53;nan;100469.44;5049182;28;20029;-77
2021/11/05 02:00:52;;;;;;;14.10;10.30;;;;;;;6.53;nan;100476.47;5046823;28;20043;-77
2021/11/05 02:03:17;;;;;;;14.40;10.30;;;;;;;6.51;nan;100475.78;5048506;28;20036;-77
2021/11/05 02:05:44;;;;;;;13.75;10.65;;;;;;;6.51;nan;100481.88;5049128;28;20029;-77
2021/11/05 02:08:11;;;;;;;19.10;11.95;;;;;;;6.55;nan;100472.78;5047316;28;20033;-77
2021/11/05 02:10:38;;;;;;;15.80;11.05;;;;;;;6.51;nan;100475.78;5049116;28;20033;-77
2021/11/05 02:13:03;;;;;;;13.10;10.18;;;;;;;6.47;nan;100480.44;5048799;28;20036;-77
2021/11/05 02:15:29;;;;;;;14.50;11.02;;;;;;;6.54;nan;100471.09;5048215;28;20411;-77
2021/11/05 02:17:54;;;;;;;13.23;10.52;;;;;;;6.48;nan;100481.28;5049036;28;20048;-77
2021/11/05 02:20:27;;;;;;;15.80;12.55;;;;;;;6.55;nan;100479.81;5048752;28;20110;-77
2021/11/05 02:22:54;;;;;;;15.93;11.73;;;;;;;6.53;nan;100485.22;5049056;28;20123;-77
2021/11/05 02:25:21;;;;;;;13.60;10.93;;;;;;;6.53;nan;100485.22;5047966;28;20163;-77
2021/11/05 02:27:49;;;;;;;14.55;11.23;;;;;;;6.56;nan;100490.19;5049365;28;20033;-77
2021/11/05 02:30:15;;;;;;;16.35;11.80;;;;;;;6.56;nan;100494.63;5048874;28;20044;-77
2021/11/05 02:32:42;;;;;;;13.77;10.85;;;;;;;6.56;nan;100492.81;5047161;28;20033;-77
2021/11/05 02:35:08;;;;;;;18.23;12.55;;;;;;;6.56;nan;100495.47;5047363;28;20036;-77
2021/11/05 02:37:33;;;;;;;17.00;11.95;;;;;;;6.58;nan;100492.72;5048619;28;20049;-77
2021/11/05 02:39:59;;;;;;;15.43;11.40;;;;;;;6.56;nan;100503.34;5048301;28;20045;-77
2021/11/05 02:42:24;;;;;;;18.35;12.07;;;;;;;6.58;nan;100503.22;5046274;28;20040;-77
2021/11/05 02:44:49;;;;;;;17.70;12.70;;;;;;;6.58;nan;100504.03;5049033;28;20063;-77
2021/11/05 02:47:18;;;;;;;17.33;12.38;;;;;;;6.56;nan;100511.22;5047092;28;20527;-77
2021/11/05 02:49:44;;;;;;;18.98;13.60;;;;;;;6.56;nan;100511.22;5049266;28;20040;-77
2021/11/05 02:52:10;;;;;;;18.52;13.45;;;;;;;6.59;nan;100510.97;5046619;28;20095;-77
2021/11/05 02:54:35;;;;;;;20.45;13.93;;;;;;;6.57;nan;100517.31;5047114;28;20040;-77
2021/11/05 02:57:01;;;;;;;18.08;12.90;;;;;;;6.54;nan;100518.38;5048294;28;20071;-77
2021/11/05 02:59:26;;;;;;;16.88;12.98;;;;;;;6.54;nan;100528.06;5049016;28;20041;-77
2021/11/05 03:01:52;;;;;;;17.60;13.43;;;;;;;6.54;nan;100533.31;5049006;28;20033;-77
2021/11/05 03:04:17;;;;;;;16.73;12.65;;;;;;;6.50;nan;100530.09;5048556;28;20051;-77
2021/11/05 03:06:43;;;;;;;17.13;12.48;;;;;;;6.52;nan;100535.25;5051674;28;20408;-77
2021/11/05 03:09:11;;;;;;;18.05;13.05;;;;;;;6.53;nan;100542.16;5051947;28;20035;-77
2021/11/05 03:11:37;;;;;;;16.25;12.48;;;;;;;6.52;nan;100546.56;5052994;28;20068;-77
2021/11/05 03:14:02;;;;;;;19.08;12.98;;;;;;;6.53;nan;100556.13;5051968;28;20065;-77
2021/11/05 03:16:27;;;;;;;18.15;13.30;;;;;;;6.55;nan;100556.00;5051420;28;20041;-77
2021/11/05 03:18:53;;;;;;;15.98;11.18;;;;;;;6.50;nan;100551.13;5052191;28;20044;-77
2021/11/05 03:21:18;;;;;;;15.90;11.48;;;;;;;6.55;nan;100556.00;5052433;28;20075;-77
2021/11/05 03:23:44;;;;;;;15.93;12.45;;;;;;;6.56;nan;100550.63;5047948;28;20061;-77
2021/11/05 03:26:09;;;;;;;16.33;12.50;;;;;;;6.56;nan;100557.69;5049835;28;20033;-77
2021/11/05 03:28:35;;;;;;;18.48;12.63;;;;;;;6.55;nan;100550.75;5052399;28;20039;-77
2021/11/05 03:31:00;;;;;;;15.73;11.75;;;;;;;6.56;nan;100558.50;5051701;28;20035;-77
2021/11/05 03:33:26;;;;;;;15.32;12.00;;;;;;;6.55;nan;100562.09;5050988;28;20111;-77
2021/11/05 03:35:51;;;;;;;17.27;12.60;;;;;;;6.61;nan;100573.06;5051587;28;20035;-77
2021/11/05 03:38:16;;;;;;;16.73;12.77;;;;;;;6.64;nan;100576.28;5051650;28;20033;-77
2021/11/05 03:40:42;;;;;;;16.40;12.90;;;;;;;6.67;nan;100575.19;5051445;28;20029;-77
2021/11/05 03:43:07;;;;;;;17.05;12.98;;;;;;;6.67;nan;100577.81;5036841;28;20029;-77
2021/11/05 03:45:34;;;;;;;13.93;11.25;;;;;;;6.59;nan;100578.44;5050506;28;20524;-77
2021/11/05 03:47:59;;;;;;;15.45;12.88;;;;;;;6.73;nan;100582.56;5051731;28;20454;-77
2021/11/05 03:50:25;;;;;;;16.83;12.20;;;;;;;6.66;nan;100589.28;5051520;28;20049;-77
2021/11/05 03:52:50;;;;;;;14.75;10.82;;;;;;;6.57;nan;100590.88;5051172;28;20037;-77
2021/11/05 03:55:15;;;;;;;16.13;11.38;;;;;;;6.61;nan;100601.97;5050825;28;20572;-77
2021/11/05 03:57:40;;;;;;;14.35;11.10;;;;;;;6.66;nan;100602.44;5051888;28;20389;-77
2021/11/05 04:00:09;;;;;;;16.10;11.90;;;;;;;6.66;nan;100605.06;5051750;28;20041;-77
2021/11/05 04:02:35;;;;;;;15.23;11.40;;;;;;;6.62;nan;100614.13;5051734;28;20052;-77
2021/11/05 04:05:00;;;;;;;13.82;10.80;;;;;;;6.63;nan;100618.44;5051644;28;20316;-77
2021/11/05 04:07:26;;;;;;;13.95;10.68;;;;;;;6.62;nan;100616.75;5051823;28;20283;-77
2021/11/05 04:09:51;;;;;;;14.80;11.15;;;;;;;6.66;nan;100620.81;5052302;28;20068;-77
2021/11/05 04:12:18;;;;;;;15.73;11.70;;;;;;;6.68;nan;100624.16;5051245;28;20060;-77
2021/11/05 04:14:43;;;;;;;15.98;11.90;;;;;;;6.68;nan;100632.88;5045503;28;20029;-77
2021/11/05 04:17:09;;;;;;;17.77;13.73;;;;;;;6.71;nan;100632.63;5051048;28;20047;-77
2021/11/05 04:19:34;;;;;;;18.08;12.35;;;;;;;6.71;nan;100637.03;5052026;28;20048;-77
2021/11/05 04:22:00;;;;;;;15.85;12.50;;;;;;;6.73;nan;100643.03;5051563;28;20029;-77
2021/11/05 04:24:25;;;;;;;17.90;11.98;;;;;;;6.76;nan;100637.50;5051726;28;20098;-77
2021/11/05 04:26:50;;;;;;;16.20;12.15;;;;;;;6.74;nan;100637.63;5051590;28;20516;-77
2021/11/05 04:29:17;;;;;;;15.63;12.15;;;;;;;6.68;nan;100645.19;5040561;28;20484;-77
2021/11/05 04:31:43;;;;;;;16.85;12.38;;;;;;;6.73;nan;100645.66;5050441;28;20029;-77
2021/11/05 04:34:08;;;;;;;15.20;11.95;;;;;;;6.71;nan;100651.00;5051351;28;20118;-77
2021/11/05 04:36:34;;;;;;;15.60;12.13;;;;;;;6.69;nan;100650.31;5050632;28;20041;-77
2021/11/05 04:38:59;;;;;;;15.13;11.38;;;;;;;6.73;nan;100653.53;5050121;28;20041;-77
2021/11/05 04:41:25;;;;;;;16.95;12.68;;;;;;;6.73;nan;100645.66;5050399;28;20033;-77
2021/11/05 04:43:51;;;;;;;15.00;11.30;;;;;;;6.71;nan;100650.19;5051136;28;20090;-77
2021/11/05 04:46:17;;;;;;;16.20;11.77;;;;;;;6.67;nan;100657.47;5050658;28;20036;-77
2021/11/05 04:48:43;;;;;;;16.20;12.23;;;;;;;6.68;nan;100664.41;5051497;28;20175;-77
2021/11/05 04:51:08;;;;;;;16.20;11.55;;;;;;;6.66;nan;100673.38;5050881;28;20074;-77
2021/11/05 04:53:33;;;;;;;17.42;13.45;;;;;;;6.71;nan;100671.22;5050661;28;20041;-77
2021/11/05 04:55:58;;;;;;;14.00;11.18;;;;;;;6.66;nan;100668.94;5050837;28;20044;-77
2021/11/05 04:58:24;;;;;;;16.20;12.52;;;;;;;6.72;nan;100678.13;5049810;28;20040;-77
2021/11/05 05:00:49;;;;;;;16.30;12.10;;;;;;;6.75;nan;100678.72;5050611;28;20523;-77
2021/11/05 05:03:14;;;;;;;18.05;12.75;;;;;;;6.72;nan;100680.75;5050081;28;20040;-77
2021/11/05 05:05:40;;;;;;;17.67;13.05;;;;;;;6.77;nan;100682.06;5050956;28;20119;-77
2021/11/05 05:08:05;;;;;;;13.82;10.75;;;;;;;6.73;nan;100690.31;5050708;28;20036;-77
2021/11/05 05:10:31;;;;;;;14.35;11.35;;;;;;;6.75;nan;100694.50;5050406;28;20029;-77
2021/11/05 05:12:56;;;;;;;15.60;12.52;;;;;;;6.78;nan;100701.28;5049036;28;20033;-77
2021/11/05 05:15:22;;;;;;;14.35;12.00;;;;;;;6.74;nan;100703.31;5049968;28;20044;-77
2021/11/05 05:17:48;;;;;;;15.60;11.32;;;;;;;6.77;nan;100705.72;5050947;28;20029;-77
2021/11/05 05:20:16;;;;;;;17.20;12.85;;;;;;;6.83;nan;100711.44;5050387;28;20211;-77
2021/11/05 05:22:43;;;;;;;17.35;13.13;;;;;;;6.81;nan;100715.00;5050641;28;20079;-77
2021/11/05 05:25:10;;;;;;;16.65;12.10;;;;;;;6.76;nan;100716.34;5050492;28;20033;-77
2021/11/05 05:27:36;;;;;;;15.55;12.15;;;;;;;6.71;nan;100714.09;5048054;28;20040;-77
2021/11/05 05:30:03;;;;;;;19.02;13.25;;;;;;;6.71;nan;100721.13;5048927;28;20044;-77
2021/11/05 05:32:29;;;;;;;16.48;12.85;;;;;;;6.70;nan;100722.94;5049765;28;20124;-77
2021/11/05 05:34:54;;;;;;;14.50;11.88;;;;;;;6.66;nan;100725.94;5047785;28;20508;-77
2021/11/05 05:37:19;;;;;;;16.73;12.52;;;;;;;6.70;nan;100737.88;5047382;28;20068;-77
2021/11/05 05:39:45;;;;;;;15.85;11.85;;;;;;;6.74;nan;100734.84;5049781;28;20059;-77
2021/11/05 05:42:10;;;;;;;13.98;11.32;;;;;;;6.76;nan;100732.94;5048760;28;20544;-77
2021/11/05 05:44:35;;;;;;;12.75;10.40;;;;;;;6.76;nan;100732.94;5049986;28;20029;-77
2021/11/05 05:47:02;;;;;;;17.23;13.35;;;;;;;6.81;nan;100737.84;5045233;28;20044;-77
2021/11/05 05:49:27;;;;;;;15.95;12.20;;;;;;;6.81;nan;100733.41;5050546;28;20033;-77
2021/11/05 05:51:53;;;;;;;17.85;13.27;;;;;;;6.74;nan;100740.09;5048245;28;20039;-77
2021/11/05 05:54:18;;;;;;;14.93;11.65;;;;;;;6.68;nan;100740.63;5047947;28;20033;-77
2021/11/05 05:56:44;;;;;;;16.40;12.43;;;;;;;6.69;nan;100747.53;5049360;28;20040;-77
2021/11/05 05:59:09;;;;;;;17.20;13.02;;;;;;;6.64;nan;100740.97;5050310;28;20099;-77
2021/11/05 06:01:35;;;;;;;18.00;13.27;;;;;;;6.58;nan;100748.38;5051026;28;20074;-77
2021/11/05 06:04:01;;;;;;;18.67;14.18;;;;;;;6.56;nan;100750.28;5048977;28;20501;-77
2021/11/05 06:06:30;;;;;;;17.30;13.40;;;;;;;6.50;nan;100752.56;5050683;28;20033;-77
2021/11/05 06:08:56;;;;;;;18.73;14.95;;;;;;;6.48;nan;100755.28;5050113;28;20033;-77
2021/11/05 06:11:22;;;;;;;19.17;14.20;;;;;;;6.46;nan;100762.50;5052792;28;20505;-77
2021/11/05 06:13:47;;;;;;;19.23;14.23;;;;;;;6.46;nan;100765.13;5050191;28;20037;-77
2021/11/05 06:16:13;;;;;;;17.60;13.93;;;;;;;6.44;nan;100768.81;5046746;28;20033;-77
2021/11/05 06:18:38;;;;;;;21.85;15.35;;;;;;;6.42;nan;100771.56;5050140;28;20128;-77
2021/11/05 06:21:04;;;;;;;16.52;12.88;;;;;;;6.35;nan;100772.97;5050184;28;20116;-77
2021/11/05 06:23:30;;;;;;;15.05;11.90;;;;;;;6.34;nan;100784.44;5049356;28;20041;-77
2021/11/05 06:25:55;;;;;;;16.25;12.82;;;;;;;6.34;nan;100787.91;5049342;28;20037;-77
2021/11/05 06:28:21;;;;;;;16.90;12.43;;;;;;;6.40;nan;100789.22;5047201;28;20066;-77
2021/11/05 06:30:47;;;;;;;15.15;12.02;;;;;;;6.41;nan;100797.94;5049785;28;20036;-77
2021/11/05 06:33:12;;;;;;;16.42;12.88;;;;;;;6.42;nan;100797.81;5049354;28;20667;-77
2021/11/05 06:35:38;;;;;;;16.17;12.27;;;;;;;6.41;nan;100811.88;5047290;28;20033;-77
2021/11/05 06:38:03;;;;;;;16.58;12.23;;;;;;;6.43;nan;100810.00;5049801;28;20112;-77
2021/11/05 06:40:29;;;;;;;17.25;13.38;;;;;;;6.46;nan;100817.66;5047015;28;20382;-78
2021/11/05 06:42:54;;;;;;;16.17;12.70;;;;;;;6.47;nan;100832.44;5048581;28;20056;-77
2021/11/05 06:45:20;;;;;;;16.50;12.63;;;;;;;6.52;nan;100832.94;5047174;28;20527;-77
2021/11/05 06:47:46;;;;;;;16.23;13.02;;;;;;;6.51;nan;100838.31;5048934;28;20566;-77
2021/11/05 06:50:11;;;;;;;;;;;;;;;6.57;nan;100835.19;5051480;28;20045;-77
2021/11/05 06:52:36;;;;;;;;;;;;;;;6.58;nan;100842.97;5048874;28;19923;-77
2021/11/05 06:55:06;;;;;;;19.63;13.98;;;;;;;6.69;nan;100847.38;5045359;28;19917;-77
2021/11/05 06:57:31;;;;;;;;;;;;;;;6.69;nan;100857.91;5046428;28;20207;-77
2021/11/05 06:59:58;;;;;;;18.88;14.35;;;;;;;6.81;nan;100861.38;5049222;28;19924;-77
2021/11/05 07:02:24;;;;;;;21.85;15.75;;;;;;;6.81;nan;100866.63;5048129;28;20037;-77
2021/11/05 07:04:49;;;;;;;19.10;14.48;;;;;;;6.85;nan;100875.13;5046525;28;20064;-77
2021/11/05 07:07:15;;;;;;;17.20;13.30;;;;;;;6.87;nan;100879.31;5048409;28;20060;-77
2021/11/05 07:09:41;;;;;;;20.80;14.25;;;;;;;6.91;nan;100887.78;5049069;28;20100;-77
2021/11/05 07:12:07;;;;;;;15.48;12.68;;;;;;;6.91;nan;100896.53;5045671;28;20563;-77
2021/11/05 07:14:32;;;;;;;16.23;11.80;;;;;;;6.97;nan;100893.41;5048968;28;20075;-77
2021/11/05 07:16:58;;;;;;;13.82;11.02;;;;;;;7.00;nan;100894.94;5049106;28;20032;-77
2021/11/05 07:19:25;;;;;;;16.80;12.80;;;;;;;7.09;nan;100909.19;5048794;28;20033;-77
2021/11/05 07:22:02;;;;;;;18.42;13.13;;;;;;;7.13;nan;100913.25;5048329;28;20025;-77
2021/11/05 07:24:29;;;;;;;21.38;13.85;;;;;;;7.16;nan;100921.72;5048247;28;20436;-77
2021/11/05 07:26:56;;;;;;;18.77;14.27;;;;;;;7.19;nan;100920.66;5047448;28;20090;-77
2021/11/05 07:29:28;;;;;;;17.45;13.60;;;;;;;7.22;nan;100925.66;5048086;28;20528;-77
2021/11/05 07:31:59;;;;;;;18.90;13.45;;;;;;;7.22;nan;100941.44;5046570;28;20028;-77
2021/11/05 07:34:29;;;;;;;19.38;13.73;;;;;;;7.25;nan;100943.03;5049173;28;20040;-77
2021/11/05 07:36:55;;;;;;;20.35;15.00;;;;;;;7.35;nan;100946.59;5047873;28;20079;-77
2021/11/05 07:39:20;;;;;;;18.88;13.48;;;;;;;7.34;nan;100945.78;5049220;28;20029;-77
2021/11/05 07:41:46;;;;;;;17.70;14.10;;;;;;;7.33;nan;100957.22;5050086;28;20101;-77
2021/11/05 07:44:11;;;;;;;17.00;12.85;;;;;;;7.37;nan;100965.72;5048392;28;20033;-77
2021/11/05 07:46:37;;;;;;;16.63;12.68;;;;;;;7.33;nan;100962.50;5049011;28;20037;-77
2021/11/05 07:49:02;;;;;;;19.23;13.65;;;;;;;7.43;nan;100966.06;5050483;28;20029;-77
2021/11/05 07:51:28;;;;;;;17.98;12.70;;;;;;;7.47;nan;100964.03;5051200;28;20505;-77
2021/11/05 07:53:54;;;;;;;17.33;13.23;;;;;;;7.55;nan;100971.31;5053006;28;20055;-77
2021/11/05 07:56:19;;;;;;;18.08;13.68;;;;;;;7.56;nan;100973.03;5051479;28;20473;-77
2021/11/05 07:58:44;;;;;;;;;;;;;;;7.60;nan;100972.66;5051700;28;20114;-77
2021/11/05 08:01:10;;;;;;;15.93;12.63;;;;;;;7.60;nan;100977.91;5052629;28;19920;-77
2021/11/05 08:03:35;;;;;;;18.52;14.00;;;;;;;7.63;nan;100979.47;5052396;28;20037;-77
2021/11/05 08:06:00;;;;;;;18.15;13.57;;;;;;;7.64;nan;100994.28;5052656;28;20041;-77
2021/11/05 08:08:27;;;;;;;;;;;;;;;7.61;nan;101002.44;5052810;28;20276;-77
2021/11/05 08:10:53;;;;;;;17.10;13.80;;;;;;;7.61;nan;101005.91;5052788;28;20023;-77
2021/11/05 08:13:20;;;;;;;19.23;13.73;;;;;;;7.69;nan;101018.44;5052231;28;20121;-76
2021/11/05 08:15:45;;;;;;;19.10;13.98;;;;;;;7.62;nan;101027.78;5050879;28;20025;-77
2021/11/05 08:18:11;;;;;;;17.38;13.38;;;;;;;7.69;nan;101028.16;5049260;28;20064;-77
2021/11/05 08:20:36;;;;;;;;;;;;;;;7.73;nan;101025.16;5051637;28;20033;-77
2021/11/05 08:23:01;;;;;;;18.58;13.98;;;;;;;7.78;nan;101035.31;5051876;28;20216;-77
2021/11/05 08:25:28;;;;;;;18.67;14.07;;;;;;;7.84;nan;101042.72;5050466;28;20056;-77
2021/11/05 08:27:54;;;;;;;19.17;13.70;;;;;;;7.86;nan;101052.19;5053110;28;20033;-77
2021/11/05 08:30:22;;;;;;;16.60;14.23;;;;;;;7.95;nan;101050.63;5049585;28;20444;-77
2021/11/05 08:32:50;;;;;;;17.55;14.65;;;;;;;7.94;nan;101048.94;5052569;28;20057;-77
2021/11/05 08:35:17;;;;;;;18.33;13.75;;;;;;;8.00;nan;101061.63;5049980;28;20083;-77
2021/11/05 08:37:43;;;;;;;14.88;11.93;;;;;;;8.00;nan;101060.78;5052290;28;20690;-77
2021/11/05 08:40:09;;;;;;;13.68;11.25;;;;;;;8.00;nan;101064.25;5052169;28;20057;-77
2021/11/05 08:42:35;;;;;;;17.45;12.68;;;;;;;8.11;nan;101062.56;5052310;28;20029;-77
2021/11/05 08:45:00;;;;;;;20.50;14.30;;;;;;;8.18;nan;101074.31;5050753;28;20129;-77
2021/11/05 08:47:26;;;;;;;16.50;13.07;;;;;;;8.16;nan;101071.78;5052392;28;20037;-77
2021/11/05 08:49:53;;;;;;;16.48;12.27;;;;;;;8.11;nan;101079.22;5051722;28;20029;-77
2021/11/05 08:52:20;;;;;;;17.30;12.35;;;;;;;8.21;nan;101088.03;5051858;28;20095;-77
2021/11/05 08:54:46;;;;;;;17.95;13.63;;;;;;;8.16;nan;101092.84;5052116;28;20025;-77
2021/11/05 08:57:11;;;;;;;16.83;11.75;;;;;;;8.11;nan;101088.91;5051830;28;20505;-77
2021/11/05 08:59:37;;;;;;;17.02;11.60;;;;;;;8.01;nan;101104.63;5052271;28;20350;-77
2021/11/05 09:02:03;;;;;;;19.10;13.30;;;;;;;7.95;nan;101105.91;5050620;28;20505;-77
2021/11/05 09:04:29;;;;;;;16.88;12.60;;;;;;;7.99;nan;101112.63;5051817;28;20163;-77
2021/11/05 09:06:54;;;;;;;15.98;12.38;;;;;;;7.92;nan;101118.50;5052140;28;20078;-77
2021/11/05 09:09:21;;;;;;;16.52;11.88;;;;;;;7.97;nan;101126.88;5050604;28;20048;-77
2021/11/05 09:11:50;;;;;;;18.50;12.95;;;;;;;8.01;nan;101134.41;5049935;28;20372;-77
2021/11/05 09:14:15;;;;;;;;;;;;;;;8.06;nan;101139.31;5052200;28;20597;-77
2021/11/05 09:16:40;;;;;;;;;;;;;;;8.17;nan;101146.38;5051164;28;20007;-77
2021/11/05 09:19:07;;;;;;;;;;;;;;;8.11;nan;101139.81;5052948;28;19917;-77
2021/11/05 09:21:33;;;;;;;17.65;12.25;;;;;;;8.05;nan;101146.38;5052047;28;20004;-77
2021/11/05 09:23:59;;;;;;;;;;;;;;;8.11;nan;101150.34;5050921;28;20573;-77
2021/11/05 09:26:25;;;;;;;18.17;12.98;;;;;;;8.18;nan;101156.78;5050425;28;19956;-77
2021/11/05 09:28:50;;;;;;;16.70;11.93;;;;;;;8.15;nan;101145.66;5051278;28;20401;-77
2021/11/05 09:31:16;;;;;;;13.52;10.55;;;;;;;8.21;nan;101155.72;5050817;28;20039;-77
2021/11/05 09:33:41;;;;;;;17.23;11.85;;;;;;;8.32;nan;101166.25;5052406;28;20382;-77
2021/11/05 09:36:07;;;;;;;18.05;13.32;;;;;;;8.38;nan;101164.91;5051390;28;20041;-77
2021/11/05 09:38:32;;;;;;;16.85;12.27;;;;;;;8.46;nan;101162.53;5043533;28;20387;-77
2021/11/05 09:40:57;;;;;;;18.50;14.10;;;;;;;8.51;nan;101181.47;5052614;28;20069;-77
2021/11/05 09:43:23;;;;;;;20.50;14.50;;;;;;;8.61;nan;101184.22;5047331;28;20045;-77
2021/11/05 09:45:48;;;;;;;18.65;13.82;;;;;;;8.66;nan;101180.22;5052305;28;20047;-77
2021/11/05 09:48:14;;;;;;;16.95;12.57;;;;;;;8.67;nan;101189.81;5050270;28;20078;-77
2021/11/05 09:50:39;;;;;;;16.20;12.02;;;;;;;8.78;nan;101183.69;5049731;28;20098;-77
2021/11/05 09:53:05;;;;;;;15.93;12.10;;;;;;;8.81;nan;101186.06;5052434;28;20037;-77
2021/11/05 09:55:34;;;;;;;18.70;13.30;;;;;;;8.96;nan;101194.53;5048756;28;20043;-77
2021/11/05 09:57:59;;;;;;;17.98;13.18;;;;;;;9.01;nan;101194.16;5048036;28;20032;-77
2021/11/05 10:00:27;;;;;;;17.15;12.90;;;;;;;9.07;nan;101198.94;5045774;28;20059;-77
2021/11/05 10:02:52;;;;;;;16.98;12.75;;;;;;;9.15;nan;101201.78;5050280;28;20497;-77
2021/11/05 10:05:19;;;;;;;20.25;13.60;;;;;;;9.13;nan;101199.28;5049329;28;20068;-77
2021/11/05 10:07:56;;;;;;;17.55;13.15;;;;;;;9.21;nan;101205.72;5050425;28;20087;-77
2021/11/05 10:10:32;;;;;;;17.13;12.43;;;;;;;9.29;nan;101200.66;5047554;28;20429;-77
2021/11/05 10:13:01;;;;;;;18.10;13.52;;;;;;;9.43;nan;101200.34;5047958;28;20036;-77
2021/11/05 10:15:35;;;;;;;20.23;13.38;;;;;;;9.36;nan;101204.44;5049710;28;20064;-77
2021/11/05 10:18:09;;;;;;;17.02;13.07;;;;;;;9.40;nan;101205.88;5050803;28;20094;-77
2021/11/05 10:20:35;;;;;;;18.85;13.82;;;;;;;9.23;nan;101214.38;5051277;28;20029;-78
2021/11/05 10:23:03;;;;;;;19.02;13.60;;;;;;;9.21;nan;101214.47;5050809;28;20029;-77
2021/11/05 10:25:51;;;;;;;17.65;13.60;;;;;;;9.23;nan;101217.84;5049772;28;20505;-77
2021/11/05 10:28:25;;;;;;;21.55;15.23;;;;;;;9.33;nan;101220.56;5049443;28;20082;-77
2021/11/05 10:30:58;;;;;;;20.20;14.85;;;;;;;9.20;nan;101222.50;5042376;28;20043;-77
2021/11/05 10:33:30;;;;;;;17.00;12.50;;;;;;;9.32;nan;101226.81;5050711;28;20059;-77
2021/11/05 10:35:58;;;;;;;16.48;11.60;;;;;;;9.40;nan;101227.00;5050573;28;20033;-77
2021/11/05 10:38:23;;;;;;;;;;;;;;;9.34;nan;101228.34;5050880;28;20083;-77
2021/11/05 10:40:56;;;;;;;17.87;13.10;;;;;;;9.47;nan;101222.88;5051191;28;19956;-77
2021/11/05 10:43:47;;;;;;;13.85;11.68;;;;;;;9.52;nan;101225.13;5050887;28;20492;-77
2021/11/05 10:46:32;;;;;;;12.27;10.88;;;;;;;9.52;nan;101228.63;5048767;28;20436;-77
2021/11/05 10:49:22;;;;;;;17.20;13.20;;;;;;;9.35;nan;101226.53;5051404;28;20175;-77
2021/11/05 10:51:47;;;;;;;16.50;11.82;;;;;;;9.38;nan;101231.56;5032693;28;20111;-77
2021/11/05 10:54:13;;;;;;;14.05;10.85;;;;;;;9.31;nan;101230.38;5037554;28;20415;-77
2021/11/05 10:56:40;;;;;;;15.82;11.63;;;;;;;9.32;nan;101227.63;5049544;28;20026;-77
2021/11/05 10:59:08;;;;;;;15.05;10.73;;;;;;;9.37;nan;101232.53;5051214;28;20036;-77
2021/11/05 11:01:39;;;;;;;16.60;11.65;;;;;;;9.28;nan;101236.75;5051918;28;20064;-77
2021/11/05 11:04:07;;;;;;;17.08;12.70;;;;;;;9.22;nan;101239.88;5050479;28;20021;-77
2021/11/05 11:06:41;;;;;;;17.50;12.45;;;;;;;9.31;nan;101240.94;5052116;28;20041;-77
2021/11/05 11:09:09;;;;;;;13.43;11.03;;;;;;;9.38;nan;101236.00;5050051;28;20397;-77
2021/11/05 11:11:39;;;;;;;;;;;;;;;9.43;nan;101239.94;5050993;28;20087;-76
2021/11/05 11:14:07;;;;;;;;;;;;;;;9.42;nan;101248.00;5048851;28;19935;-75
2021/11/05 11:16:36;;;;;;;16.35;11.55;;;;;;;9.42;nan;101234.81;5039945;28;19929;-77
2021/11/05 11:19:14;;;;;;;17.02;12.48;;;;;;;9.35;nan;101242.38;5052731;28;20436;-77
2021/11/05 11:21:42;;;;;;;15.77;11.57;;;;;;;9.36;nan;101236.94;5051255;28;20056;-77
2021/11/05 11:24:11;;;;;;;15.70;10.82;;;;;;;9.48;nan;101245.66;5051309;28;20036;-77
2021/11/05 11:26:38;;;;;;;17.25;11.23;;;;;;;9.46;nan;101242.34;5054218;28;20112;-77
2021/11/05 11:29:06;;;;;;;16.10;11.98;;;;;;;9.51;nan;101242.78;5054840;28;20032;-77
2021/11/05 11:31:32;;;;;;;15.65;11.73;;;;;;;9.51;nan;101245.44;5054895;28;20087;-77
2021/11/05 11:34:03;;;;;;;17.73;12.27;;;;;;;9.67;nan;101244.16;5052626;28;20033;-77